Time;durP1;ratioP1;P1;durP2;ratioP2;P2;SDS_P1;SDS_P2;PMS_P1;PMS_P2;Temp;Humidity;BMP_temperature;BMP_pressure;BME280_temperature;BME280_humidity;BME280_pressure;Samples;Min_cycle;Max_cycle;Signal;HPM_P1;HPM_P2
2023/02/13 00:01:11;;;;;;;20.80;11.30;;;8.70;99.90;;;;;;5122543;28;20456;-70
2023/02/13 00:03:38;;;;;;;18.00;11.13;;;8.70;99.90;;;;;;5121897;28;20522;-69
2023/02/13 00:06:07;;;;;;;19.57;11.03;;;8.60;99.90;;;;;;5124548;28;20471;-71
2023/02/13 00:08:34;;;;;;;20.70;10.80;;;8.60;99.90;;;;;;5124354;28;20460;-70
2023/02/13 00:11:01;;;;;;;20.33;9.80;;;8.70;99.90;;;;;;5124997;28;20449;-70
2023/02/13 00:13:28;;;;;;;18.50;10.57;;;8.70;99.90;;;;;;5124934;28;20445;-69
2023/02/13 00:15:56;;;;;;;16.07;9.40;;;8.70;99.90;;;;;;5125400;28;20455;-69
2023/02/13 00:18:23;;;;;;;14.30;8.53;;;8.70;99.90;;;;;;5125500;28;20491;-69
2023/02/13 00:20:58;;;;;;;11.60;7.47;;;8.70;99.90;;;;;;5123687;28;20547;-70
2023/02/13 00:23:26;;;;;;;14.17;8.27;;;8.70;99.90;;;;;;5122621;28;20460;-70
2023/02/13 00:25:53;;;;;;;16.00;8.53;;;8.70;99.90;;;;;;5123643;28;20536;-70
2023/02/13 00:28:20;;;;;;;11.90;6.23;;;8.70;99.90;;;;;;5124964;28;20506;-71
2023/02/13 00:30:46;;;;;;;13.83;5.90;;;8.60;99.90;;;;;;5124224;28;20506;-70
2023/02/13 00:33:13;;;;;;;9.93;5.90;;;8.60;99.90;;;;;;5124385;28;20968;-70
2023/02/13 00:35:40;;;;;;;10.00;6.00;;;8.60;99.90;;;;;;5125364;28;20488;-71
2023/02/13 00:38:07;;;;;;;8.63;5.80;;;8.60;99.90;;;;;;5124441;28;20787;-70
2023/02/13 00:40:35;;;;;;;7.97;5.20;;;8.60;99.90;;;;;;5121675;28;20486;-70
2023/02/13 00:43:02;;;;;;;7.67;4.77;;;8.60;99.90;;;;;;5121636;28;20476;-70
2023/02/13 00:45:29;;;;;;;11.43;5.37;;;8.50;99.90;;;;;;5120406;28;20517;-71
2023/02/13 00:47:56;;;;;;;10.70;6.37;;;8.50;99.90;;;;;;5121752;28;20917;-70
2023/02/13 00:50:23;;;;;;;13.23;6.40;;;8.50;99.90;;;;;;5120669;28;20536;-70
2023/02/13 00:52:49;;;;;;;15.90;8.53;;;8.50;99.90;;;;;;5121478;28;20453;-69
2023/02/13 00:55:16;;;;;;;15.07;9.30;;;8.50;99.90;;;;;;5121556;28;20925;-70
2023/02/13 00:57:45;;;;;;;15.00;7.93;;;8.50;99.90;;;;;;5121926;28;20456;-70
2023/02/13 01:00:13;;;;;;;14.00;7.40;;;8.40;99.90;;;;;;5121238;28;20460;-70
2023/02/13 01:02:40;;;;;;;10.50;6.33;;;8.40;99.90;;;;;;5122146;28;20535;-70
2023/02/13 01:05:07;;;;;;;11.57;6.87;;;8.40;99.90;;;;;;5122404;28;20463;-70
2023/02/13 01:07:34;;;;;;;9.57;5.37;;;8.40;99.90;;;;;;5119941;28;20544;-70
2023/02/13 01:10:01;;;;;;;10.40;6.70;;;8.40;99.90;;;;;;5121106;28;20887;-70
2023/02/13 01:12:28;;;;;;;7.33;4.80;;;8.40;99.90;;;;;;5123387;28;20516;-70
2023/02/13 01:14:56;;;;;;;7.20;4.50;;;8.40;99.90;;;;;;5122414;28;20453;-72
2023/02/13 01:17:23;;;;;;;6.00;4.40;;;8.40;99.90;;;;;;5119668;28;20551;-71
2023/02/13 01:19:49;;;;;;;6.90;4.47;;;8.40;99.90;;;;;;5119143;28;20814;-70
2023/02/13 01:22:16;;;;;;;6.63;3.10;;;8.30;99.90;;;;;;5119635;28;20539;-70
2023/02/13 01:24:43;;;;;;;4.73;3.33;;;8.30;99.90;;;;;;5121317;28;20905;-70
2023/02/13 01:27:10;;;;;;;6.60;4.13;;;8.30;99.90;;;;;;5122865;28;20484;-70
2023/02/13 01:29:37;;;;;;;5.33;3.73;;;8.30;99.90;;;;;;5125287;28;20472;-70
2023/02/13 01:32:05;;;;;;;5.80;3.20;;;8.30;99.90;;;;;;5124262;28;20520;-71
2023/02/13 01:34:33;;;;;;;5.13;3.20;;;8.40;99.90;;;;;;5123391;28;20543;-70
2023/02/13 01:36:59;;;;;;;5.23;3.33;;;8.40;99.90;;;;;;5121468;28;20543;-70
2023/02/13 01:39:26;;;;;;;4.33;3.37;;;8.40;99.90;;;;;;5121267;28;20452;-70
2023/02/13 01:41:53;;;;;;;4.20;3.03;;;8.40;99.90;;;;;;5121128;28;20480;-70
2023/02/13 01:44:48;;;;;;;8.20;3.43;;;8.40;99.90;;;;;;5119982;28;20567;-71
2023/02/13 01:47:22;;;;;;;5.80;3.20;;;8.40;99.90;;;;;;5072962;28;20535;-70
2023/02/13 01:49:50;;;;;;;4.60;3.37;;;8.40;99.90;;;;;;5120027;28;20540;-71
2023/02/13 01:52:18;;;;;;;7.73;3.77;;;8.30;99.90;;;;;;5119997;28;20453;-70
2023/02/13 01:54:46;;;;;;;8.70;3.73;;;8.30;99.90;;;;;;5120979;28;20455;-70
2023/02/13 01:57:16;;;;;;;4.93;3.20;;;8.30;99.90;;;;;;5122824;28;20544;-70
2023/02/13 01:59:46;;;;;;;4.37;2.83;;;8.20;99.90;;;;;;5123813;28;20559;-70
2023/02/13 02:02:14;;;;;;;4.27;2.80;;;8.20;99.90;;;;;;5122996;28;20477;-70
2023/02/13 02:04:44;;;;;;;4.00;2.90;;;8.20;99.90;;;;;;5123150;28;20480;-71
2023/02/13 02:07:14;;;;;;;4.90;2.73;;;8.20;99.90;;;;;;5122545;28;20456;-70
2023/02/13 02:09:44;;;;;;;4.07;3.20;;;8.20;99.90;;;;;;5122436;28;20519;-71
2023/02/13 02:12:19;;;;;;;4.93;2.87;;;8.20;99.90;;;;;;5124131;28;20484;-71
2023/02/13 02:14:46;;;;;;;4.10;3.37;;;8.20;99.90;;;;;;5121122;28;20436;-71
2023/02/13 02:17:13;;;;;;;4.67;3.60;;;8.20;99.90;;;;;;5121912;28;20534;-71
2023/02/13 02:19:47;;;;;;;5.23;3.23;;;8.20;99.90;;;;;;5123048;28;20515;-69
2023/02/13 02:22:46;;;;;;;5.17;3.17;;;8.20;99.90;;;;;;5123348;28;20440;-70
2023/02/13 02:25:47;;;;;;;4.63;3.00;;;8.20;99.90;;;;;;5122293;28;20491;-70
2023/02/13 02:28:58;;;;;;;4.10;3.17;;;8.10;99.90;;;;;;5124143;28;20504;-70
2023/02/13 02:32:08;;;;;;;4.97;3.30;;;8.20;99.90;;;;;;5115706;28;20463;-70
2023/02/13 02:34:47;;;;;;;6.30;3.60;;;8.10;99.90;;;;;;5083484;28;20528;-70
2023/02/13 02:37:29;;;;;;;5.20;3.90;;;8.00;99.90;;;;;;5120120;28;20524;-70
2023/02/13 02:40:08;;;;;;;3.90;2.80;;;8.00;99.90;;;;;;5121578;28;20437;-70
2023/02/13 02:42:43;;;;;;;4.43;3.30;;;8.00;99.90;;;;;;5122904;28;20447;-71
2023/02/13 02:45:17;;;;;;;7.60;3.80;;;8.00;99.90;;;;;;5124023;28;20475;-70
2023/02/13 02:50:41;;;;;;;5.67;3.67;;;8.10;99.90;;;;;;5123808;28;20432;-70
2023/02/13 02:53:23;;;;;;;6.13;4.10;;;8.10;99.90;;;;;;5121307;28;20543;-70
2023/02/13 02:55:55;;;;;;;6.80;4.30;;;8.10;99.90;;;;;;5122034;28;20514;-70
2023/02/13 03:06:51;;;;;;;6.87;4.40;;;8.10;99.90;;;;;;5121540;28;20427;-70
2023/02/13 03:15:06;;;;;;;7.70;4.60;;;8.00;99.90;;;;;;5121785;28;20498;-71
2023/02/13 03:23:17;;;;;;;6.50;4.50;;;8.00;99.90;;;;;;5121945;28;20521;-70
2023/02/13 03:26:07;;;;;;;7.83;5.23;;;8.00;99.90;;;;;;5122046;28;20448;-71
2023/02/13 03:31:29;;;;;;;8.00;4.80;;;8.00;99.90;;;;;;5088447;28;20440;-71
2023/02/13 03:34:01;;;;;;;6.77;4.57;;;7.90;99.90;;;;;;5121709;28;20487;-70
2023/02/13 03:39:29;;;;;;;7.17;4.90;;;7.90;99.90;;;;;;5087841;28;20448;-71
2023/02/13 03:42:01;;;;;;;7.67;5.27;;;7.90;99.90;;;;;;5120569;28;20806;-71
2023/02/13 03:44:33;;;;;;;7.40;5.10;;;7.90;99.90;;;;;;5120438;28;20460;-71
2023/02/13 03:47:03;;;;;;;7.90;5.10;;;7.90;99.90;;;;;;5119941;28;20440;-70
2023/02/13 03:52:27;;;;;;;12.00;6.53;;;7.90;99.90;;;;;;5120061;28;20836;-69
2023/02/13 04:00:33;;;;;;;6.90;5.53;;;7.90;99.90;;;;;;5120088;28;20707;-70
2023/02/13 04:03:08;;;;;;;7.77;5.90;;;7.90;99.90;;;;;;5119679;28;20468;-70
2023/02/13 04:05:41;;;;;;;10.13;6.93;;;7.90;99.90;;;;;;5120514;28;20955;-71
2023/02/13 04:08:09;;;;;;;9.30;6.20;;;7.90;99.90;;;;;;5120174;28;20775;-70
2023/02/13 04:10:42;;;;;;;8.87;5.43;;;7.90;99.90;;;;;;5120272;28;20931;-70
2023/02/13 04:13:14;;;;;;;8.30;5.67;;;7.90;99.90;;;;;;5119748;28;20473;-70
2023/02/13 04:15:46;;;;;;;10.50;6.97;;;7.90;99.90;;;;;;5119536;28;20494;-70
2023/02/13 04:18:17;;;;;;;8.57;5.90;;;7.90;99.90;;;;;;5120007;28;20527;-70
2023/02/13 04:20:44;;;;;;;8.67;6.70;;;7.80;99.90;;;;;;5120180;28;20448;-70
2023/02/13 04:23:13;;;;;;;9.53;6.23;;;7.80;99.90;;;;;;5120080;28;20485;-71
2023/02/13 04:25:43;;;;;;;9.20;6.90;;;7.80;99.90;;;;;;5119970;28;20542;-70
2023/02/13 04:28:10;;;;;;;9.27;7.10;;;7.80;99.90;;;;;;5119430;28;20525;-70
2023/02/13 04:30:37;;;;;;;8.37;6.40;;;7.80;99.90;;;;;;5119759;28;20452;-69
2023/02/13 04:33:04;;;;;;;10.87;7.53;;;7.80;99.90;;;;;;5120364;28;20453;-70
2023/02/13 04:35:31;;;;;;;11.40;8.40;;;7.80;99.90;;;;;;5120995;28;20838;-69
2023/02/13 04:37:58;;;;;;;13.50;8.07;;;7.80;99.90;;;;;;5119744;28;20513;-71
2023/02/13 04:40:26;;;;;;;12.63;8.50;;;7.80;99.90;;;;;;5119259;28;20480;-70
2023/02/13 04:42:53;;;;;;;11.40;7.47;;;7.80;99.90;;;;;;5119867;28;20437;-69
2023/02/13 04:45:20;;;;;;;14.10;9.50;;;7.70;99.90;;;;;;5119398;28;20246;-70
2023/02/13 04:47:51;;;;;;;14.37;8.83;;;7.80;99.90;;;;;;5119405;28;20448;-68
2023/02/13 04:50:18;;;;;;;14.00;10.07;;;7.80;99.90;;;;;;5119317;28;20444;-70
2023/02/13 04:52:45;;;;;;;17.20;9.97;;;7.80;99.90;;;;;;5119179;28;20452;-71
2023/02/13 04:55:12;;;;;;;16.33;8.97;;;7.80;99.90;;;;;;5119568;28;20492;-70
2023/02/13 04:57:41;;;;;;;16.50;10.63;;;7.70;99.90;;;;;;5119676;28;20536;-69
2023/02/13 05:00:09;;;;;;;15.03;10.20;;;7.80;99.90;;;;;;5119432;28;20488;-71
2023/02/13 05:02:36;;;;;;;13.60;9.83;;;7.80;99.90;;;;;;5120542;28;20833;-69
2023/02/13 05:05:03;;;;;;;14.00;9.47;;;7.80;99.90;;;;;;5119578;28;20571;-71
2023/02/13 05:07:30;;;;;;;15.20;9.47;;;7.80;99.90;;;;;;5119413;28;20452;-70
2023/02/13 05:09:56;;;;;;;14.03;9.07;;;7.80;99.90;;;;;;5119666;28;20539;-70
2023/02/13 05:12:23;;;;;;;14.63;9.37;;;7.80;99.90;;;;;;5118202;28;20470;-70
2023/02/13 05:14:52;;;;;;;15.80;9.80;;;7.80;99.90;;;;;;5119010;28;20456;-70
2023/02/13 05:17:18;;;;;;;14.00;9.17;;;7.80;99.90;;;;;;5119193;28;20453;-70
2023/02/13 05:19:45;;;;;;;13.03;8.07;;;7.80;99.90;;;;;;5119328;28;20476;-70
2023/02/13 05:24:57;;;;;;;12.30;8.20;;;7.70;99.90;;;;;;5118756;28;20460;-71
2023/02/13 05:27:24;;;;;;;15.17;9.57;;;7.70;99.90;;;;;;5118716;28;20457;-70
2023/02/13 05:29:52;;;;;;;14.70;9.20;;;7.70;99.90;;;;;;5120102;28;20503;-72
2023/02/13 05:32:19;;;;;;;11.70;8.20;;;7.70;99.90;;;;;;5119729;28;20464;-71
2023/02/13 05:34:46;;;;;;;11.97;7.90;;;7.70;99.90;;;;;;5118862;28;20452;-71
2023/02/13 05:37:13;;;;;;;11.53;8.37;;;7.70;99.90;;;;;;5119414;28;20467;-70
2023/02/13 05:39:39;;;;;;;11.23;7.23;;;7.70;99.90;;;;;;5108043;28;20463;-71
2023/02/13 05:42:07;;;;;;;10.60;7.13;;;7.70;99.90;;;;;;5097564;28;20564;-71
2023/02/13 05:44:34;;;;;;;11.17;7.33;;;7.70;99.90;;;;;;5098148;28;20485;-70
2023/02/13 05:47:02;;;;;;;10.37;6.47;;;7.60;99.90;;;;;;5098294;28;20513;-70
2023/02/13 05:49:29;;;;;;;13.43;8.37;;;7.60;99.90;;;;;;5098046;28;20542;-71
2023/02/13 05:51:56;;;;;;;10.17;6.77;;;7.70;99.90;;;;;;5097809;28;20453;-70
2023/02/13 05:54:23;;;;;;;10.57;7.77;;;7.70;99.90;;;;;;5098015;28;20456;-71
2023/02/13 05:56:50;;;;;;;12.10;7.03;;;7.60;99.90;;;;;;5098647;28;20491;-70
2023/02/13 05:59:17;;;;;;;13.00;7.73;;;7.70;99.90;;;;;;5100493;28;20457;-70
2023/02/13 06:01:44;;;;;;;11.20;8.00;;;7.70;99.90;;;;;;5102555;28;20554;-69
2023/02/13 06:04:12;;;;;;;10.50;6.57;;;7.70;99.90;;;;;;5099017;28;20528;-70
2023/02/13 06:06:39;;;;;;;9.97;6.33;;;7.70;99.90;;;;;;5098481;28;20964;-70
2023/02/13 06:09:06;;;;;;;9.40;6.57;;;7.70;99.90;;;;;;5098519;28;20530;-69
2023/02/13 06:11:33;;;;;;;11.53;7.27;;;7.70;99.90;;;;;;5098751;28;20492;-71
2023/02/13 06:13:59;;;;;;;11.47;8.00;;;7.80;99.90;;;;;;5098817;28;20449;-70
2023/02/13 06:16:26;;;;;;;9.90;6.47;;;7.70;99.90;;;;;;5098319;28;20461;-70
2023/02/13 06:18:53;;;;;;;10.70;7.10;;;7.80;99.90;;;;;;5097783;28;20461;-70
2023/02/13 06:21:21;;;;;;;7.50;5.73;;;7.80;99.90;;;;;;5098276;28;20457;-70
2023/02/13 06:23:48;;;;;;;9.43;6.53;;;7.80;99.90;;;;;;5115463;28;20560;-71
2023/02/13 06:26:15;;;;;;;11.87;6.27;;;7.80;99.90;;;;;;5120177;28;20796;-71
2023/02/13 06:28:42;;;;;;;8.80;7.00;;;7.80;99.90;;;;;;5119574;28;21001;-71
2023/02/13 06:31:09;;;;;;;10.67;7.60;;;7.90;99.90;;;;;;5119102;28;20561;-72
2023/02/13 06:33:35;;;;;;;9.10;6.60;;;7.90;99.90;;;;;;5119521;28;20480;-70
2023/02/13 06:36:02;;;;;;;11.20;7.60;;;7.90;99.90;;;;;;5119424;28;20452;-70
2023/02/13 06:38:31;;;;;;;8.67;7.53;;;7.90;99.90;;;;;;5118647;28;20505;-71
2023/02/13 06:41:00;;;;;;;9.80;7.33;;;7.90;99.90;;;;;;5119680;28;20556;-70
2023/02/13 06:43:27;;;;;;;10.80;7.03;;;8.00;99.90;;;;;;5103949;28;20453;-71
2023/02/13 06:45:54;;;;;;;8.80;6.67;;;8.00;99.90;;;;;;5098778;28;20544;-70
2023/02/13 06:48:21;;;;;;;11.03;7.40;;;8.00;99.90;;;;;;5098770;28;20468;-71
2023/02/13 06:50:50;;;;;;;9.30;7.60;;;8.00;99.90;;;;;;5097262;28;20489;-72
2023/02/13 06:53:18;;;;;;;9.87;7.57;;;8.10;99.90;;;;;;5097668;28;20519;-72
2023/02/13 06:55:46;;;;;;;10.67;7.30;;;8.10;99.90;;;;;;5098155;28;20493;-70
2023/02/13 06:58:13;;;;;;;10.70;6.90;;;8.10;99.90;;;;;;5097424;28;20536;-73
2023/02/13 07:00:40;;;;;;;8.93;6.80;;;8.10;99.90;;;;;;5097277;28;20544;-71
2023/02/13 07:03:08;;;;;;;10.87;7.23;;;8.10;99.90;;;;;;5098159;28;20544;-71
2023/02/13 07:05:35;;;;;;;9.87;7.00;;;8.10;99.90;;;;;;5097999;28;21000;-71
2023/02/13 07:08:02;;;;;;;9.93;7.20;;;8.10;99.90;;;;;;5097802;28;20541;-72
2023/02/13 07:10:29;;;;;;;9.67;6.87;;;8.20;99.90;;;;;;5097524;28;20922;-70
2023/02/13 07:12:57;;;;;;;7.90;6.40;;;8.10;99.90;;;;;;5098095;28;20815;-70
2023/02/13 07:15:24;;;;;;;9.80;6.73;;;8.20;99.90;;;;;;5097789;28;20485;-73
2023/02/13 07:17:56;;;;;;;11.27;7.30;;;8.20;99.90;;;;;;5098049;28;20463;-71
2023/02/13 07:20:23;;;;;;;11.73;6.60;;;8.20;99.90;;;;;;5097236;28;20445;-71
2023/02/13 07:22:50;;;;;;;13.90;6.70;;;8.20;99.90;;;;;;5097084;28;20489;-69
2023/02/13 07:25:17;;;;;;;10.60;7.60;;;8.20;99.90;;;;;;5096884;28;20469;-70
2023/02/13 07:27:44;;;;;;;11.90;7.60;;;8.20;99.90;;;;;;5097082;28;20550;-71
2023/02/13 07:30:13;;;;;;;10.50;7.40;;;8.20;99.90;;;;;;5096739;28;20993;-71
2023/02/13 07:32:40;;;;;;;8.80;6.90;;;8.20;99.90;;;;;;5096685;28;20461;-71
2023/02/13 07:35:06;;;;;;;8.77;6.70;;;8.30;99.90;;;;;;5096963;28;20490;-69
2023/02/13 07:37:33;;;;;;;11.17;6.93;;;8.30;99.90;;;;;;5096844;28;20544;-70
2023/02/13 07:40:00;;;;;;;8.87;6.37;;;8.30;99.90;;;;;;5096325;28;20556;-70
2023/02/13 07:42:27;;;;;;;8.43;6.40;;;8.30;99.90;;;;;;5096875;28;20526;-71
2023/02/13 07:44:54;;;;;;;6.93;5.90;;;8.20;99.90;;;;;;5097175;28;20846;-71
2023/02/13 07:47:22;;;;;;;8.17;6.50;;;8.20;99.90;;;;;;5096322;28;20819;-70
2023/02/13 07:49:49;;;;;;;9.47;7.00;;;8.20;99.90;;;;;;5099605;28;20497;-70
2023/02/13 07:52:16;;;;;;;8.23;6.50;;;8.20;99.90;;;;;;5101266;28;20449;-70
2023/02/13 07:54:46;;;;;;;10.83;7.13;;;8.20;99.90;;;;;;5101639;28;20543;-71
2023/02/13 07:57:13;;;;;;;8.50;6.63;;;8.20;99.90;;;;;;5101352;28;20458;-70
2023/02/13 07:59:40;;;;;;;8.53;6.73;;;8.20;99.90;;;;;;5101056;28;20456;-71
2023/02/13 08:02:11;;;;;;;10.50;6.90;;;8.10;99.90;;;;;;5100520;28;20488;-71
2023/02/13 08:04:39;;;;;;;8.50;6.23;;;8.10;99.90;;;;;;5100951;28;20560;-72
2023/02/13 08:07:06;;;;;;;10.63;7.20;;;8.10;99.90;;;;;;5099831;28;20539;-71
2023/02/13 08:12:17;;;;;;;11.10;6.83;;;8.10;99.90;;;;;;5099950;28;20432;-73
2023/02/13 08:14:44;;;;;;;10.13;7.27;;;8.10;99.90;;;;;;5100487;28;20560;-71
2023/02/13 08:17:10;;;;;;;7.90;6.10;;;8.10;99.90;;;;;;5099792;28;20512;-71
2023/02/13 08:19:39;;;;;;;8.33;5.87;;;8.10;99.90;;;;;;5100154;28;20481;-70
2023/02/13 08:22:06;;;;;;;10.00;7.00;;;8.10;99.90;;;;;;5100105;28;20458;-70
2023/02/13 08:24:33;;;;;;;9.70;6.80;;;8.10;99.90;;;;;;5099442;28;20493;-71
2023/02/13 08:26:59;;;;;;;7.87;5.93;;;8.10;99.90;;;;;;5099452;28;20460;-71
2023/02/13 08:29:26;;;;;;;9.97;6.57;;;8.20;99.90;;;;;;5099652;28;20549;-71
2023/02/13 08:31:53;;;;;;;9.20;6.13;;;8.20;99.90;;;;;;5098946;28;20898;-71
2023/02/13 08:34:20;;;;;;;8.90;6.30;;;8.20;99.90;;;;;;5098894;28;20468;-70
2023/02/13 08:36:48;;;;;;;8.03;6.30;;;8.20;99.90;;;;;;5098858;28;20453;-70
2023/02/13 08:39:15;;;;;;;10.77;7.77;;;8.30;99.90;;;;;;5098998;28;20464;-71
2023/02/13 08:41:42;;;;;;;13.87;7.40;;;8.30;99.90;;;;;;5098835;28;20580;-71
2023/02/13 08:44:10;;;;;;;11.97;8.30;;;8.30;99.90;;;;;;5099644;28;20533;-73
2023/02/13 08:46:36;;;;;;;8.63;6.20;;;8.30;99.90;;;;;;5098328;28;20489;-71
2023/02/13 08:49:03;;;;;;;10.17;7.40;;;8.30;99.90;;;;;;5098525;28;20457;-70
2023/02/13 08:51:30;;;;;;;10.13;6.77;;;8.30;99.90;;;;;;5098979;28;20457;-72
2023/02/13 08:53:59;;;;;;;11.43;6.50;;;8.30;99.90;;;;;;5099125;28;20548;-72
2023/02/13 08:56:26;;;;;;;9.37;6.33;;;8.30;99.90;;;;;;5098961;28;20540;-71
2023/02/13 08:58:53;;;;;;;9.47;6.30;;;8.30;99.90;;;;;;5098893;28;20537;-72
2023/02/13 09:01:22;;;;;;;11.67;6.83;;;8.30;99.90;;;;;;5098994;28;20544;-71
2023/02/13 09:03:49;;;;;;;10.30;6.70;;;8.30;99.90;;;;;;5099305;28;20797;-71
2023/02/13 09:06:16;;;;;;;10.70;8.10;;;8.40;99.90;;;;;;5100265;28;20477;-71
2023/02/13 09:08:43;;;;;;;9.47;6.23;;;8.40;99.90;;;;;;5101521;28;20540;-72
2023/02/13 09:11:12;;;;;;;8.93;6.73;;;8.40;99.90;;;;;;5100428;28;20461;-72
2023/02/13 09:13:39;;;;;;;13.13;8.27;;;8.30;99.90;;;;;;5099207;28;20795;-71
2023/02/13 09:16:07;;;;;;;11.27;7.23;;;8.30;99.90;;;;;;5099788;28;20453;-71
2023/02/13 09:18:35;;;;;;;10.50;7.17;;;8.20;99.90;;;;;;5100106;28;20461;-71
2023/02/13 09:21:04;;;;;;;12.77;7.60;;;8.10;99.90;;;;;;5100224;28;20464;-71
2023/02/13 09:23:32;;;;;;;13.60;7.80;;;8.10;99.90;;;;;;5100398;28;20481;-73
2023/02/13 09:26:00;;;;;;;13.00;8.30;;;8.10;99.90;;;;;;5099885;28;20656;-72
2023/02/13 09:28:29;;;;;;;8.50;6.50;;;8.10;99.90;;;;;;5099417;28;20914;-73
2023/02/13 09:30:56;;;;;;;12.03;8.90;;;8.00;99.90;;;;;;5099725;28;20461;-71
2023/02/13 09:33:23;;;;;;;11.27;8.03;;;7.90;99.90;;;;;;5098875;28;20539;-72
2023/02/13 09:35:50;;;;;;;10.27;7.30;;;7.90;99.90;;;;;;5098154;28;20513;-71
2023/02/13 09:38:17;;;;;;;9.23;6.73;;;7.90;99.90;;;;;;5099352;28;20477;-71
2023/02/13 09:40:48;;;;;;;11.47;7.53;;;7.90;99.90;;;;;;5098373;28;20554;-71
2023/02/13 09:43:22;;;;;;;13.37;7.87;;;7.90;99.90;;;;;;5098974;28;20448;-70
2023/02/13 09:45:53;;;;;;;10.00;7.40;;;7.80;99.90;;;;;;5099037;28;20873;-73
2023/02/13 09:48:29;;;;;;;11.07;8.30;;;7.80;99.90;;;;;;5098890;28;20441;-72
2023/02/13 09:50:56;;;;;;;15.23;8.83;;;7.70;99.90;;;;;;5098501;28;20881;-72
2023/02/13 09:53:27;;;;;;;12.33;7.80;;;7.70;99.90;;;;;;5098816;28;20453;-71
2023/02/13 09:56:05;;;;;;;11.00;7.90;;;7.70;99.90;;;;;;5099765;28;20438;-71
2023/02/13 09:58:41;;;;;;;12.97;8.37;;;7.60;99.90;;;;;;5098978;28;20540;-72
2023/02/13 10:01:20;;;;;;;11.63;8.53;;;7.60;99.90;;;;;;5117272;28;20523;-71
2023/02/13 10:03:52;;;;;;;12.37;8.70;;;7.60;99.90;;;;;;5118863;28;20433;-71
2023/02/13 10:06:27;;;;;;;13.80;8.37;;;7.60;99.90;;;;;;5118767;28;20496;-71
2023/02/13 10:09:12;;;;;;;12.90;9.50;;;7.50;99.90;;;;;;5116572;28;20483;-71
2023/02/13 10:12:12;;;;;;;14.10;8.77;;;7.50;99.90;;;;;;5116493;28;20440;-70
2023/02/13 10:14:46;;;;;;;14.57;9.43;;;7.50;99.90;;;;;;5116595;28;20519;-71
2023/02/13 10:17:18;;;;;;;14.20;8.83;;;7.50;99.90;;;;;;5115822;28;20437;-71
2023/02/13 10:19:50;;;;;;;14.97;8.93;;;7.50;99.90;;;;;;5107925;27;20453;-72
2023/02/13 10:22:20;;;;;;;15.90;9.03;;;7.50;99.90;;;;;;5095877;28;20495;-71
2023/02/13 10:24:51;;;;;;;17.40;10.10;;;7.50;99.90;;;;;;5095454;28;20540;-73
2023/02/13 10:27:22;;;;;;;15.17;9.70;;;7.50;99.90;;;;;;5099014;28;20532;-73
2023/02/13 10:30:05;;;;;;;17.43;9.30;;;7.50;99.90;;;;;;5096776;28;20528;-71
2023/02/13 10:32:43;;;;;;;15.50;9.40;;;7.50;99.90;;;;;;5097073;28;20484;-71
2023/02/13 10:35:24;;;;;;;16.67;9.83;;;7.50;99.90;;;;;;5097658;28;20941;-72
2023/02/13 10:37:55;;;;;;;18.13;9.33;;;7.50;99.90;;;;;;5096657;28;20494;-70
2023/02/13 10:40:28;;;;;;;15.67;10.53;;;7.60;99.90;;;;;;5096458;28;20485;-72
2023/02/13 10:43:03;;;;;;;19.53;11.63;;;7.70;99.90;;;;;;5096075;28;20524;-71
2023/02/13 10:45:54;;;;;;;15.50;9.97;;;7.80;99.90;;;;;;5096234;28;20465;-71
2023/02/13 10:48:52;;;;;;;14.07;10.20;;;7.90;99.90;;;;;;5096391;28;20900;-70
2023/02/13 10:51:27;;;;;;;14.00;9.30;;;7.80;99.90;;;;;;5096148;28;20441;-71
2023/02/13 10:54:09;;;;;;;15.10;9.57;;;7.80;99.90;;;;;;5096979;28;20438;-72
2023/02/13 10:56:41;;;;;;;15.03;9.13;;;7.80;99.90;;;;;;5096061;28;20429;-70
2023/02/13 10:59:27;;;;;;;17.33;10.40;;;7.80;99.90;;;;;;5095653;28;20624;-71
2023/02/13 11:01:57;;;;;;;15.87;10.67;;;7.90;99.90;;;;;;5096991;28;20452;-72
2023/02/13 11:04:26;;;;;;;16.03;10.20;;;8.10;99.90;;;;;;5096867;28;20454;-73
2023/02/13 11:06:57;;;;;;;14.97;9.90;;;8.10;99.90;;;;;;5094805;28;20483;-72
2023/02/13 11:09:24;;;;;;;18.60;10.40;;;8.10;99.90;;;;;;5094888;28;20480;-70
2023/02/13 11:11:52;;;;;;;18.17;10.47;;;8.20;99.90;;;;;;5095066;28;20540;-71
2023/02/13 11:14:21;;;;;;;13.50;9.53;;;8.20;99.90;;;;;;5095002;28;20840;-71
2023/02/13 11:16:52;;;;;;;16.77;11.40;;;8.20;99.90;;;;;;5094695;28;20532;-71
2023/02/13 11:19:29;;;;;;;14.77;10.17;;;8.20;99.90;;;;;;5094721;28;20437;-71
2023/02/13 11:21:59;;;;;;;20.50;12.20;;;8.20;99.90;;;;;;5094763;28;20473;-71
2023/02/13 11:24:27;;;;;;;16.60;11.07;;;8.20;99.90;;;;;;5098284;28;20551;-72
2023/02/13 11:26:59;;;;;;;14.90;10.83;;;8.30;99.90;;;;;;5098762;28;20564;-71
2023/02/13 11:29:29;;;;;;;17.43;10.87;;;8.30;99.90;;;;;;5099758;28;20437;-72
2023/02/13 11:32:20;;;;;;;18.50;11.23;;;8.30;99.90;;;;;;5099142;28;20961;-72
2023/02/13 11:34:50;;;;;;;17.10;11.50;;;8.40;99.90;;;;;;5099319;28;20524;-70
2023/02/13 11:37:23;;;;;;;16.30;11.33;;;8.40;99.90;;;;;;5099328;28;20438;-72
2023/02/13 11:39:52;;;;;;;14.10;9.73;;;8.50;99.90;;;;;;5100611;28;20471;-70
2023/02/13 11:42:29;;;;;;;18.80;10.83;;;8.50;99.90;;;;;;5060168;28;20459;-70
2023/02/13 11:45:00;;;;;;;17.63;11.10;;;8.50;99.90;;;;;;5060295;28;20522;-72
2023/02/13 11:47:33;;;;;;;16.00;10.27;;;8.50;99.90;;;;;;5059512;28;20467;-71
2023/02/13 11:50:02;;;;;;;16.93;10.77;;;8.50;99.90;;;;;;5060218;28;20537;-71
2023/02/13 11:52:32;;;;;;;18.07;10.60;;;8.50;99.90;;;;;;5060303;28;20546;-72
2023/02/13 11:55:01;;;;;;;14.13;10.90;;;8.50;99.90;;;;;;5060153;28;20534;-72
2023/02/13 11:57:31;;;;;;;15.80;11.07;;;8.50;99.90;;;;;;5060860;28;20969;-72
2023/02/13 11:59:59;;;;;;;18.63;12.60;;;8.50;99.90;;;;;;5061373;28;20526;-72
2023/02/13 12:02:28;;;;;;;16.23;11.17;;;8.50;99.90;;;;;;5060649;28;20461;-71
2023/02/13 12:05:14;;;;;;;16.20;11.30;;;8.50;99.90;;;;;;5061401;28;20527;-71
2023/02/13 12:07:43;;;;;;;18.10;11.77;;;8.50;99.90;;;;;;5061710;28;20454;-71
2023/02/13 12:10:20;;;;;;;16.97;12.07;;;8.40;99.90;;;;;;5061944;28;20518;-71
2023/02/13 12:12:53;;;;;;;17.63;12.10;;;8.40;99.90;;;;;;5061183;28;20439;-72
2023/02/13 12:15:24;;;;;;;21.53;13.20;;;8.40;99.90;;;;;;5060817;28;20450;-71
2023/02/13 12:18:04;;;;;;;20.40;12.17;;;8.40;99.90;;;;;;5062214;28;20451;-71
2023/02/13 12:20:38;;;;;;;18.07;12.30;;;8.40;99.90;;;;;;5062805;28;20518;-72
2023/02/13 12:23:18;;;;;;;16.60;11.63;;;8.50;99.90;;;;;;5064358;28;20435;-72
2023/02/13 12:26:17;;;;;;;19.63;12.87;;;8.50;99.90;;;;;;5065272;28;20487;-72
2023/02/13 12:29:06;;;;;;;19.40;11.40;;;8.50;99.90;;;;;;5061315;28;20530;-72
2023/02/13 12:32:04;;;;;;;19.73;11.93;;;8.40;99.90;;;;;;5060790;28;20428;-71
2023/02/13 12:35:01;;;;;;;15.50;11.03;;;8.40;99.90;;;;;;5044435;28;20538;-71
2023/02/13 12:37:47;;;;;;;20.80;12.73;;;8.40;99.90;;;;;;5060316;28;20436;-71
2023/02/13 12:40:38;;;;;;;17.90;12.17;;;8.50;99.90;;;;;;5065076;28;20481;-71
2023/02/13 12:43:26;;;;;;;17.20;11.77;;;8.60;99.90;;;;;;5098965;28;20453;-72
2023/02/13 12:46:01;;;;;;;17.13;11.23;;;8.60;99.90;;;;;;5098855;28;20501;-71
2023/02/13 12:48:43;;;;;;;15.17;11.40;;;8.60;99.90;;;;;;5100542;28;20536;-72
2023/02/13 12:51:25;;;;;;;16.20;10.67;;;8.60;99.90;;;;;;5101412;28;20438;-70
2023/02/13 12:54:05;;;;;;;22.23;12.30;;;8.60;99.90;;;;;;5100507;28;20473;-71
2023/02/13 12:56:46;;;;;;;19.67;12.77;;;8.60;99.90;;;;;;5099575;28;20528;-71
2023/02/13 12:59:22;;;;;;;18.57;12.67;;;8.60;99.90;;;;;;5100210;28;20828;-72
2023/02/13 13:02:03;;;;;;;19.33;13.30;;;8.60;99.90;;;;;;5099049;28;20460;-71
2023/02/13 13:04:42;;;;;;;18.03;12.03;;;8.60;99.90;;;;;;5099792;28;20444;-72
2023/02/13 13:07:31;;;;;;;17.63;12.17;;;8.60;99.90;;;;;;5098978;28;20466;-71
2023/02/13 13:10:31;;;;;;;18.40;12.37;;;8.50;99.90;;;;;;5098341;28;20438;-71
2023/02/13 13:13:09;;;;;;;20.40;13.03;;;8.50;99.90;;;;;;5098604;28;20500;-71
2023/02/13 13:15:43;;;;;;;17.90;12.57;;;8.50;99.90;;;;;;5099845;28;20442;-72
2023/02/13 13:18:32;;;;;;;20.07;12.77;;;8.50;99.90;;;;;;5099307;28;20452;-71
2023/02/13 13:21:08;;;;;;;19.67;12.30;;;8.50;99.90;;;;;;5099149;28;20442;-71
2023/02/13 13:23:40;;;;;;;20.77;11.83;;;8.50;99.90;;;;;;5099692;28;20528;-71
2023/02/13 13:26:15;;;;;;;20.10;13.33;;;8.60;99.90;;;;;;5100007;28;20475;-72
2023/02/13 13:28:46;;;;;;;19.90;12.40;;;8.60;99.90;;;;;;5100248;28;20455;-72
2023/02/13 13:31:14;;;;;;;18.07;12.27;;;8.70;99.90;;;;;;5099744;28;20816;-73
2023/02/13 13:33:45;;;;;;;23.13;13.17;;;8.70;99.90;;;;;;5098252;28;20489;-72
2023/02/13 13:36:19;;;;;;;19.17;12.17;;;8.60;99.90;;;;;;5098814;28;20430;-72
2023/02/13 13:38:53;;;;;;;17.13;11.60;;;8.60;99.90;;;;;;5099998;28;20533;-71
2023/02/13 13:41:28;;;;;;;19.33;12.93;;;8.60;99.90;;;;;;5099858;28;20484;-72
2023/02/13 13:44:19;;;;;;;21.23;12.17;;;8.60;99.90;;;;;;5100552;28;20447;-71
2023/02/13 13:46:57;;;;;;;19.73;12.53;;;8.60;99.90;;;;;;5099219;28;20472;-71
2023/02/13 13:49:35;;;;;;;18.77;12.87;;;8.70;99.90;;;;;;5099679;28;20442;-72
2023/02/13 13:52:27;;;;;;;24.53;13.40;;;8.70;99.90;;;;;;5101345;28;20461;-71